Time;durP1;ratioP1;P1;durP2;ratioP2;P2;SDS_P1;SDS_P2;PMS_P1;PMS_P2;Temp;Humidity;BMP_temperature;BMP_pressure;BME280_temperature;BME280_humidity;BME280_pressure;Samples;Min_cycle;Max_cycle;Signal;HPM_P1;HPM_P2
2024/03/31 00:00:19;;;;;;;9.80;6.68;;;;;;;5.84;100.00;69034.88;5089448;28;20040;-55
2024/03/31 00:02:47;;;;;;;12.07;6.70;;;;;;;5.82;100.00;69033.16;5092253;28;20085;-51
2024/03/31 00:05:13;;;;;;;11.05;6.80;;;;;;;5.83;100.00;69033.72;5091226;28;20043;-51
2024/03/31 00:07:40;;;;;;;10.77;6.97;;;;;;;5.89;100.00;69049.03;5088676;28;20044;-48
2024/03/31 00:10:07;;;;;;;11.05;6.60;;;;;;;5.92;100.00;69049.94;5090520;28;20032;-51
2024/03/31 00:12:34;;;;;;;10.15;6.85;;;;;;;5.96;100.00;69053.41;5092910;28;20140;-50
2024/03/31 00:15:02;;;;;;;9.77;6.90;;;;;;;6.01;100.00;69054.09;5092488;28;20059;-50
2024/03/31 00:17:29;;;;;;;9.57;5.82;;;;;;;6.01;100.00;69059.84;5072290;28;20052;-53
2024/03/31 00:19:55;;;;;;;10.18;7.13;;;;;;;6.03;100.00;69064.75;5089961;28;20059;-50
2024/03/31 00:22:22;;;;;;;9.98;6.63;;;;;;;6.07;100.00;69064.22;5092414;28;20040;-51
2024/03/31 00:24:48;;;;;;;9.15;6.15;;;;;;;6.12;100.00;69077.22;5073352;28;20624;-52
2024/03/31 00:27:15;;;;;;;10.38;6.60;;;;;;;6.13;100.00;69067.47;5089234;28;20101;-52
2024/03/31 00:29:41;;;;;;;10.13;6.47;;;;;;;6.17;100.00;69072.13;5088595;28;20048;-51
2024/03/31 00:32:10;;;;;;;9.82;6.55;;;;;;;6.18;100.00;69079.03;5088631;28;20396;-49
2024/03/31 00:34:36;;;;;;;11.25;6.65;;;;;;;6.19;100.00;69074.44;5092063;28;20036;-52
2024/03/31 00:37:03;;;;;;;12.30;7.65;;;;;;;6.22;100.00;69083.13;5091968;28;20036;-51
2024/03/31 00:39:29;;;;;;;12.88;8.23;;;;;;;6.23;100.00;69084.25;5091992;28;20531;-50
2024/03/31 00:41:56;;;;;;;13.13;8.25;;;;;;;6.28;100.00;69086.91;5091921;28;20442;-50
2024/03/31 00:44:23;;;;;;;13.65;9.07;;;;;;;6.29;100.00;69085.50;5092131;28;20039;-49
2024/03/31 00:46:50;;;;;;;15.63;9.50;;;;;;;6.31;100.00;69088.38;5074930;28;20048;-52
2024/03/31 00:49:17;;;;;;;17.67;10.43;;;;;;;6.35;100.00;69097.66;5091822;28;20044;-53
2024/03/31 00:51:44;;;;;;;16.67;9.85;;;;;;;6.35;100.00;69098.22;5089818;28;20098;-49
2024/03/31 00:54:10;;;;;;;17.15;11.32;;;;;;;6.35;100.00;69095.63;5070543;28;20052;-49
2024/03/31 00:56:38;;;;;;;20.30;11.30;;;;;;;6.39;100.00;69099.72;5071818;28;20047;-50
2024/03/31 00:59:04;;;;;;;20.38;11.45;;;;;;;6.42;100.00;69103.19;5090971;28;20044;-52
2024/03/31 01:01:31;;;;;;;20.90;12.52;;;;;;;6.46;100.00;69110.44;5091702;28;20040;-51
2024/03/31 01:03:57;;;;;;;21.80;12.52;;;;;;;6.51;100.00;69113.66;5091297;28;20039;-52
2024/03/31 01:06:26;;;;;;;22.52;14.32;;;;;;;6.53;100.00;69118.59;5089599;28;20055;-49
2024/03/31 01:08:54;;;;;;;23.65;13.70;;;;;;;6.55;100.00;69118.31;5087328;28;20044;-52
2024/03/31 01:11:21;;;;;;;25.05;14.63;;;;;;;6.58;100.00;69123.81;5088224;28;20044;-52
2024/03/31 01:13:49;;;;;;;23.75;14.25;;;;;;;6.68;100.00;69134.88;5087951;28;20040;-52
2024/03/31 01:16:16;;;;;;;25.10;14.88;;;;;;;6.69;100.00;69136.03;5087911;28;20044;-53
2024/03/31 01:18:43;;;;;;;22.60;13.65;;;;;;;6.70;100.00;69134.63;5071405;28;20036;-51
2024/03/31 01:21:14;;;;;;;26.25;14.77;;;;;;;6.73;100.00;69133.47;5089512;28;20080;-52
2024/03/31 01:23:52;;;;;;;23.27;14.18;;;;;;;6.76;100.00;69141.59;5088241;28;20044;-48
2024/03/31 01:26:19;;;;;;;23.30;13.85;;;;;;;6.77;100.00;69140.16;5088073;28;20128;-48
2024/03/31 01:28:46;;;;;;;23.02;13.85;;;;;;;6.82;100.00;69153.19;5087684;28;20055;-51
2024/03/31 01:31:13;;;;;;;20.38;12.40;;;;;;;6.83;100.00;69146.56;5088506;28;20439;-46
2024/03/31 01:33:42;;;;;;;19.20;12.20;;;;;;;6.81;100.00;69150.00;5090731;28;20452;-51
2024/03/31 01:36:10;;;;;;;18.77;10.95;;;;;;;6.88;100.00;69160.16;5090573;28;20379;-49
2024/03/31 01:38:36;;;;;;;17.60;10.00;;;;;;;6.87;100.00;69151.81;5070237;28;20044;-46
2024/03/31 01:41:04;;;;;;;16.75;10.10;;;;;;;6.87;100.00;69156.41;5087562;28;20048;-49
2024/03/31 01:43:30;;;;;;;17.95;10.27;;;;;;;6.87;100.00;69156.41;5090919;28;20491;-51
2024/03/31 01:45:58;;;;;;;16.10;9.65;;;;;;;6.88;100.00;69160.72;5088787;28;20044;-52
2024/03/31 01:48:24;;;;;;;17.95;10.43;;;;;;;6.89;100.00;69154.13;5087882;28;20102;-49
2024/03/31 01:50:51;;;;;;;15.32;9.57;;;;;;;6.86;100.00;69155.25;5087005;28;20044;-52
2024/03/31 01:53:17;;;;;;;16.20;10.60;;;;;;;6.88;100.00;69154.97;5086426;28;20059;-50
2024/03/31 01:55:44;;;;;;;17.52;9.57;;;;;;;6.88;100.00;69152.38;5073354;28;20477;-51
2024/03/31 01:58:12;;;;;;;17.02;10.25;;;;;;;6.85;100.00;69154.66;5090692;28;20047;-51
2024/03/31 02:00:39;;;;;;;17.13;9.82;;;;;;;6.84;100.00;69150.88;5090748;28;20040;-50
2024/03/31 02:03:05;;;;;;;15.07;9.40;;;;;;;6.83;100.00;69152.34;5087833;28;20052;-53
2024/03/31 02:05:32;;;;;;;14.85;9.40;;;;;;;6.80;100.00;69143.66;5087279;28;20253;-53
2024/03/31 02:07:58;;;;;;;18.10;11.23;;;;;;;6.79;100.00;69145.09;5085593;28;20061;-49
2024/03/31 02:10:25;;;;;;;15.50;9.27;;;;;;;6.76;100.00;69141.59;5087513;28;20047;-50
2024/03/31 02:12:51;;;;;;;15.50;9.93;;;;;;;6.76;100.00;69141.59;5087019;28;20075;-52
2024/03/31 02:15:19;;;;;;;15.05;9.60;;;;;;;6.77;100.00;69143.31;5087138;28;20685;-51
2024/03/31 02:17:45;;;;;;;15.50;9.68;;;;;;;6.78;100.00;69143.91;5089334;28;20048;-52
2024/03/31 02:20:14;;;;;;;14.73;9.68;;;;;;;6.77;100.00;69145.91;5090170;28;20043;-50
2024/03/31 02:22:40;;;;;;;15.18;9.80;;;;;;;6.79;100.00;69147.09;5086480;28;20040;-50
2024/03/31 02:25:07;;;;;;;14.60;9.30;;;;;;;6.81;100.00;69150.00;5087100;28;20047;-49
2024/03/31 02:27:33;;;;;;;13.77;8.30;;;;;;;6.80;100.00;69140.47;5087459;28;20051;-51
2024/03/31 02:30:00;;;;;;;14.23;9.00;;;;;;;6.82;100.00;69148.56;5087227;28;20050;-53
2024/03/31 02:32:28;;;;;;;14.02;8.95;;;;;;;6.82;100.00;69151.16;5089521;28;20475;-52
2024/03/31 02:34:55;;;;;;;14.88;10.00;;;;;;;6.82;100.00;69151.16;5089646;28;20044;-53
2024/03/31 02:37:30;;;;;;;17.38;10.38;;;;;;;6.83;100.00;69149.75;5085814;28;20038;-50
2024/03/31 02:39:57;;;;;;;15.02;10.65;;;;;;;6.82;100.00;69151.16;5086569;28;20055;-49
2024/03/31 02:42:23;;;;;;;15.77;10.82;;;;;;;6.88;100.00;69152.38;5087393;28;20052;-51
2024/03/31 02:44:50;;;;;;;15.80;10.68;;;;;;;6.85;100.00;69146.88;5090032;28;20044;-53
2024/03/31 02:47:16;;;;;;;18.13;11.45;;;;;;;6.84;100.00;69150.88;5073365;28;20052;-51
2024/03/31 02:49:45;;;;;;;17.85;11.93;;;;;;;6.83;100.00;69152.34;5088539;28;20047;-53
2024/03/31 02:52:11;;;;;;;19.15;12.77;;;;;;;6.82;100.00;69148.56;5071196;28;20075;-53
2024/03/31 02:54:38;;;;;;;20.02;13.10;;;;;;;6.83;100.00;69149.75;5090734;28;20060;-52
2024/03/31 02:57:04;;;;;;;22.52;15.75;;;;;;;6.83;100.00;69149.75;5090526;28;20044;-51
2024/03/31 02:59:31;;;;;;;20.85;14.90;;;;;;;6.79;100.00;69147.09;5091529;28;20047;-52
2024/03/31 03:01:58;;;;;;;22.05;15.40;;;;;;;6.81;100.00;69147.41;5075896;28;20048;-50
2024/03/31 03:04:25;;;;;;;22.90;16.30;;;;;;;6.83;100.00;69149.16;5090937;28;20062;-53
2024/03/31 03:06:53;;;;;;;24.02;16.17;;;;;;;6.86;100.00;69153.22;5089724;28;20789;-52
2024/03/31 03:09:20;;;;;;;22.98;14.75;;;;;;;6.80;100.00;69148.25;5090514;28;20040;-55
2024/03/31 03:11:46;;;;;;;20.38;13.50;;;;;;;6.79;100.00;69145.09;5090307;28;20484;-52
2024/03/31 03:14:14;;;;;;;22.50;14.52;;;;;;;6.78;100.00;69146.50;5092613;28;20047;-51
2024/03/31 03:16:43;;;;;;;19.48;13.65;;;;;;;6.80;100.00;69143.06;5073670;28;20491;-52
2024/03/31 03:19:10;;;;;;;21.23;13.85;;;;;;;6.79;100.00;69145.09;5091922;28;20040;-52
2024/03/31 03:21:36;;;;;;;18.27;13.02;;;;;;;6.81;100.00;69149.44;5090705;28;20040;-50
2024/03/31 03:24:04;;;;;;;19.02;13.48;;;;;;;6.81;100.00;69144.81;5089355;28;20447;-52
2024/03/31 03:26:31;;;;;;;17.48;12.13;;;;;;;6.80;100.00;69143.66;5093273;28;20077;-50
2024/03/31 03:28:59;;;;;;;19.65;12.75;;;;;;;6.80;100.00;69143.66;5089807;28;20062;-51
2024/03/31 03:31:25;;;;;;;18.20;11.85;;;;;;;6.79;100.00;69142.50;5090571;28;20040;-52
2024/03/31 03:33:52;;;;;;;16.65;11.52;;;;;;;6.75;100.00;69143.59;5090103;28;20091;-54
2024/03/31 03:36:18;;;;;;;17.02;10.77;;;;;;;6.74;100.00;69139.84;5089465;28;20376;-50
2024/03/31 03:38:47;;;;;;;15.73;10.13;;;;;;;6.71;100.00;69138.38;5089328;28;20048;-52
2024/03/31 03:41:15;;;;;;;15.57;10.25;;;;;;;6.71;100.00;69140.97;5089722;28;20055;-51
2024/03/31 03:43:42;;;;;;;15.60;10.63;;;;;;;6.70;100.00;69137.22;5089959;28;20075;-50
2024/03/31 03:46:08;;;;;;;15.27;10.40;;;;;;;6.67;100.00;69134.28;5089896;28;20368;-49
2024/03/31 03:48:35;;;;;;;15.98;10.68;;;;;;;6.70;100.00;69132.59;5092973;28;20040;-51
2024/03/31 03:51:02;;;;;;;14.45;9.90;;;;;;;6.68;100.00;69134.88;5093267;28;20392;-50
2024/03/31 03:53:29;;;;;;;13.95;9.50;;;;;;;6.72;100.00;69139.53;5093150;28;20036;-49
2024/03/31 03:55:56;;;;;;;14.93;10.13;;;;;;;6.68;100.00;69132.88;5092774;28;20052;-49
2024/03/31 03:58:24;;;;;;;13.48;9.73;;;;;;;6.71;100.00;69136.34;5092836;28;20032;-50
2024/03/31 04:00:50;;;;;;;14.73;9.52;;;;;;;6.71;100.00;69141.53;5090467;28;20051;-51
2024/03/31 04:03:17;;;;;;;14.88;8.82;;;;;;;6.73;100.00;69135.50;5088254;28;20094;-50
2024/03/31 04:05:53;;;;;;;13.25;9.35;;;;;;;6.71;100.00;69138.38;5072691;28;20054;-52
2024/03/31 04:08:20;;;;;;;12.40;8.95;;;;;;;6.72;100.00;69136.94;5088980;28;20036;-50
2024/03/31 04:10:47;;;;;;;14.20;9.00;;;;;;;6.71;100.00;69135.78;5073617;28;20142;-50
2024/03/31 04:13:14;;;;;;;15.32;9.38;;;;;;;6.71;100.00;69135.78;5092606;28;20047;-49
2024/03/31 04:15:42;;;;;;;14.32;9.43;;;;;;;6.73;100.00;69140.69;5092780;28;20048;-49
2024/03/31 04:18:09;;;;;;;13.63;9.65;;;;;;;6.70;100.00;69132.59;5092393;28;20067;-49
2024/03/31 04:20:40;;;;;;;13.73;9.57;;;;;;;6.71;100.00;69133.75;5092635;28;20051;-48
2024/03/31 04:23:07;;;;;;;13.75;9.52;;;;;;;6.69;100.00;69131.44;5092534;28;20495;-49
2024/03/31 04:25:33;;;;;;;15.38;10.18;;;;;;;6.70;100.00;69137.22;5092910;28;20415;-52
2024/03/31 04:28:00;;;;;;;15.50;10.20;;;;;;;6.66;100.00;69133.13;5090064;28;20032;-52
2024/03/31 04:30:27;;;;;;;14.63;10.02;;;;;;;6.67;100.00;69136.31;5072227;28;20047;-48
2024/03/31 04:32:55;;;;;;;14.05;10.25;;;;;;;6.70;100.00;69134.63;5088828;28;20046;-53
2024/03/31 04:35:25;;;;;;;12.95;9.98;;;;;;;6.68;100.00;69135.47;5090404;28;20060;-51
2024/03/31 04:37:51;;;;;;;16.77;10.48;;;;;;;6.65;100.00;69126.78;5091936;28;20046;-53
2024/03/31 04:40:18;;;;;;;15.35;10.30;;;;;;;6.65;100.00;69131.97;5091951;28;20044;-52
2024/03/31 04:42:44;;;;;;;13.82;10.60;;;;;;;6.66;100.00;69130.53;5091967;28;20430;-53
2024/03/31 04:45:12;;;;;;;15.75;10.27;;;;;;;6.70;100.00;69137.78;5092123;28;20044;-52
2024/03/31 04:47:38;;;;;;;15.10;10.35;;;;;;;6.71;100.00;69133.19;5091514;28;20036;-54
2024/03/31 04:50:07;;;;;;;13.63;10.15;;;;;;;6.72;100.00;69137.53;5088261;28;20567;-49
2024/03/31 04:52:33;;;;;;;15.13;10.52;;;;;;;6.67;100.00;69131.13;5071063;28;20080;-50
2024/03/31 04:55:00;;;;;;;15.13;10.02;;;;;;;6.66;100.00;69130.53;5090329;28;20502;-52
2024/03/31 04:57:26;;;;;;;15.82;11.07;;;;;;;6.71;100.00;69135.78;5074938;28;20048;-51
2024/03/31 04:59:53;;;;;;;15.13;10.52;;;;;;;6.70;100.00;69137.22;5091105;28;20040;-49
2024/03/31 05:02:19;;;;;;;16.10;11.15;;;;;;;6.69;100.00;69136.03;5071956;28;20052;-52
2024/03/31 05:04:46;;;;;;;15.35;10.70;;;;;;;6.75;100.00;69137.84;5088409;28;20059;-49
2024/03/31 05:07:14;;;;;;;14.43;10.50;;;;;;;6.75;100.00;69140.44;5089700;28;20042;-52
2024/03/31 05:09:41;;;;;;;14.60;10.65;;;;;;;6.76;100.00;69142.19;5091706;28;20036;-51
2024/03/31 05:12:07;;;;;;;15.65;11.10;;;;;;;6.75;100.00;69145.63;5071821;28;20048;-49
2024/03/31 05:14:34;;;;;;;15.25;10.32;;;;;;;6.73;100.00;69138.66;5088878;28;20048;-50
2024/03/31 05:17:03;;;;;;;16.00;11.82;;;;;;;6.74;100.00;69141.84;5090325;28;20035;-50
2024/03/31 05:19:31;;;;;;;15.70;11.45;;;;;;;6.76;100.00;69139.00;5087967;28;20047;-51
2024/03/31 05:21:57;;;;;;;16.30;11.30;;;;;;;6.80;100.00;69143.06;5087011;28;20406;-53
2024/03/31 05:24:25;;;;;;;14.95;11.15;;;;;;;6.80;100.00;69148.84;5070892;28;20051;-50
2024/03/31 05:26:51;;;;;;;16.50;11.88;;;;;;;6.80;100.00;69148.84;5087950;28;20070;-50
2024/03/31 05:29:20;;;;;;;18.30;12.70;;;;;;;6.83;100.00;69143.97;5088159;28;20040;-52
2024/03/31 05:31:47;;;;;;;16.10;12.88;;;;;;;6.81;100.00;69150.00;5087806;28;20055;-50
2024/03/31 05:34:13;;;;;;;18.45;12.32;;;;;;;6.84;100.00;69145.69;5087965;28;20090;-48
2024/03/31 05:36:40;;;;;;;18.35;13.13;;;;;;;6.87;100.00;69151.22;5089712;28;20579;-47
2024/03/31 05:39:06;;;;;;;17.30;12.68;;;;;;;6.86;100.00;69153.22;5091130;28;20044;-48
2024/03/31 05:41:35;;;;;;;19.17;13.85;;;;;;;6.84;100.00;69153.47;5088068;28;20510;-47
2024/03/31 05:44:01;;;;;;;17.80;13.80;;;;;;;6.86;100.00;69153.22;5088445;28;20047;-48
2024/03/31 05:46:30;;;;;;;16.58;12.57;;;;;;;6.85;100.00;69154.66;5090993;28;20119;-48
2024/03/31 05:48:57;;;;;;;17.42;12.60;;;;;;;6.85;100.00;69154.66;5090694;28;20051;-48
2024/03/31 05:51:24;;;;;;;17.13;12.60;;;;;;;6.87;100.00;69157.00;5087760;28;20402;-48
2024/03/31 05:53:50;;;;;;;17.35;12.30;;;;;;;6.90;100.00;69159.91;5086622;28;20040;-49
2024/03/31 05:56:17;;;;;;;18.02;13.20;;;;;;;6.86;100.00;69150.06;5090584;28;20056;-48
2024/03/31 05:58:45;;;;;;;18.58;12.98;;;;;;;6.84;100.00;69153.47;5090489;28;20044;-50
2024/03/31 06:01:12;;;;;;;19.10;13.50;;;;;;;6.83;100.00;69144.56;5088702;28;20039;-48
2024/03/31 06:03:41;;;;;;;20.02;14.75;;;;;;;6.82;100.00;69150.59;5087217;28;20509;-49
2024/03/31 06:06:08;;;;;;;19.58;14.68;;;;;;;6.90;100.00;69154.72;5086572;28;20044;-49
2024/03/31 06:08:34;;;;;;;22.92;16.15;;;;;;;6.91;100.00;69159.06;5090181;28;20418;-50
2024/03/31 06:11:02;;;;;;;20.38;15.48;;;;;;;6.91;100.00;69159.06;5090132;28;20047;-49
2024/03/31 06:13:28;;;;;;;24.77;16.85;;;;;;;6.99;100.00;69170.38;5090648;28;20567;-51
2024/03/31 06:15:57;;;;;;;23.23;16.73;;;;;;;7.05;100.00;69174.75;5073337;28;20056;-49
2024/03/31 06:18:23;;;;;;;22.60;16.40;;;;;;;7.10;100.00;69180.00;5073339;28;20047;-49
2024/03/31 06:20:50;;;;;;;24.15;16.80;;;;;;;7.10;100.00;69182.59;5090001;28;20044;-48
2024/03/31 06:23:16;;;;;;;21.67;15.75;;;;;;;7.15;100.00;69188.41;5086183;28;20040;-51
2024/03/31 06:25:44;;;;;;;20.52;15.18;;;;;;;7.15;100.00;69183.22;5086558;28;20074;-51
2024/03/31 06:28:10;;;;;;;20.83;16.00;;;;;;;7.22;100.00;69193.94;5090235;28;20399;-51
2024/03/31 06:30:40;;;;;;;22.90;16.23;;;;;;;7.24;100.00;69193.09;5073304;28;20564;-46
2024/03/31 06:33:07;;;;;;;21.73;16.27;;;;;;;7.23;100.00;69192.53;5090256;28;20387;-46
2024/03/31 06:35:34;;;;;;;21.63;15.90;;;;;;;7.23;100.00;69192.53;5090190;28;20044;-48
2024/03/31 06:38:01;;;;;;;21.75;16.10;;;;;;;7.30;100.00;69199.53;5085540;28;20047;-47
2024/03/31 06:40:28;;;;;;;22.95;16.90;;;;;;;7.32;100.00;69204.44;5088372;28;20047;-50
2024/03/31 06:42:54;;;;;;;23.05;16.42;;;;;;;7.35;100.00;69205.31;5090252;28;20044;-49
2024/03/31 06:45:21;;;;;;;24.55;16.98;;;;;;;7.36;100.00;69207.09;5090353;28;20520;-49
2024/03/31 06:47:47;;;;;;;22.33;16.30;;;;;;;7.41;100.00;69214.91;5090276;28;20384;-49
2024/03/31 06:50:16;;;;;;;22.63;16.63;;;;;;;7.44;100.00;69221.59;5090090;28;20047;-48
2024/03/31 06:52:42;;;;;;;23.98;17.10;;;;;;;7.47;100.00;69221.88;5090439;28;20052;-51
2024/03/31 06:55:09;;;;;;;20.98;15.45;;;;;;;7.53;100.00;69230.91;5090201;28;20064;-47
2024/03/31 06:57:35;;;;;;;22.17;16.10;;;;;;;7.54;100.00;69232.06;5090273;28;20071;-48
2024/03/31 07:00:03;;;;;;;21.30;16.08;;;;;;;7.57;100.00;69233.53;5090212;28;20498;-46
2024/03/31 07:02:29;;;;;;;20.95;16.33;;;;;;;7.66;100.00;69248.06;5090327;28;20784;-46
2024/03/31 07:04:56;;;;;;;21.42;16.33;;;;;;;7.67;100.00;69247.19;5090054;28;20044;-51
2024/03/31 07:07:23;;;;;;;22.75;17.08;;;;;;;7.72;100.00;69247.84;5088639;28;20040;-47
2024/03/31 07:09:50;;;;;;;19.83;15.57;;;;;;;7.72;100.00;69253.03;5086284;28;20044;-49
2024/03/31 07:12:17;;;;;;;20.75;15.88;;;;;;;7.76;100.00;69251.91;5086765;28;20044;-47
2024/03/31 07:14:44;;;;;;;21.90;16.98;;;;;;;7.77;100.00;69255.66;5086913;28;20128;-48
2024/03/31 07:17:10;;;;;;;22.52;17.70;;;;;;;7.81;100.00;69262.34;5086693;28;20415;-52
2024/03/31 07:19:39;;;;;;;24.58;18.98;;;;;;;7.83;100.00;69259.47;5070577;28;20048;-53
2024/03/31 07:22:05;;;;;;;25.17;18.25;;;;;;;7.81;100.00;69255.13;5090044;28;20044;-53
2024/03/31 07:24:35;;;;;;;25.08;18.27;;;;;;;7.83;100.00;69262.66;5088105;28;20087;-51
2024/03/31 07:27:02;;;;;;;24.85;18.60;;;;;;;7.91;100.00;69274.56;5086392;28;20048;-50
2024/03/31 07:29:29;;;;;;;24.90;18.98;;;;;;;7.93;100.00;69273.72;5087041;28;20094;-53
2024/03/31 07:31:55;;;;;;;25.15;18.70;;;;;;;7.94;100.00;69274.88;5086716;28;20050;-47
2024/03/31 07:34:25;;;;;;;28.42;18.38;;;;;;;7.95;100.00;69276.06;5089735;28;20441;-49
2024/03/31 07:36:52;;;;;;;28.17;20.67;;;;;;;8.07;100.00;69292.63;5089667;28;20040;-49
2024/03/31 07:39:18;;;;;;;26.77;20.38;;;;;;;8.10;100.00;69295.53;5076295;28;20044;-48
2024/03/31 07:41:46;;;;;;;28.65;21.23;;;;;;;8.18;100.00;69304.28;5091223;28;20430;-46
2024/03/31 07:44:15;;;;;;;26.58;20.00;;;;;;;8.25;100.00;69310.41;5073007;28;20075;-47
2024/03/31 07:46:44;;;;;;;28.55;20.77;;;;;;;8.33;100.00;69316.56;5093304;28;20071;-47
2024/03/31 07:49:11;;;;;;;28.42;20.30;;;;;;;8.42;100.00;69331.66;5076180;28;20048;-46
2024/03/31 07:51:38;;;;;;;28.40;21.40;;;;;;;8.51;100.00;69344.78;5076239;28;20062;-48
2024/03/31 07:54:04;;;;;;;23.85;19.48;;;;;;;8.60;100.00;69346.84;5092979;28;20048;-46
2024/03/31 07:56:31;;;;;;;26.80;19.98;;;;;;;8.72;100.00;69360.84;5075879;28;20071;-49
2024/03/31 07:58:58;;;;;;;27.98;20.50;;;;;;;8.78;100.00;69373.06;5092810;28;20036;-47
2024/03/31 08:01:25;;;;;;;26.35;19.25;;;;;;;8.80;100.00;69367.56;5093009;28;20048;-47
2024/03/31 08:03:51;;;;;;;25.65;18.92;;;;;;;8.88;100.00;69380.94;5092708;28;20098;-50
2024/03/31 08:06:19;;;;;;;25.15;18.50;;;;;;;8.93;100.00;69386.75;5092758;28;20497;-48
2024/03/31 08:08:45;;;;;;;25.90;18.92;;;;;;;9.06;100.00;69399.31;5092871;28;20487;-48
2024/03/31 08:11:12;;;;;;;26.95;19.48;;;;;;;9.09;100.00;69404.81;5089741;28;20048;-50
2024/03/31 08:13:43;;;;;;;26.33;19.52;;;;;;;9.24;100.00;69424.34;5089877;28;20132;-47
2024/03/31 08:16:12;;;;;;;25.10;19.65;;;;;;;9.34;100.00;69430.81;5092841;28;20044;-47
2024/03/31 08:18:42;;;;;;;23.95;19.48;;;;;;;9.42;100.00;69440.13;5092702;28;20438;-50
2024/03/31 08:21:10;;;;;;;25.67;19.17;;;;;;;9.50;100.00;69451.47;5075573;28;20048;-50
2024/03/31 08:23:38;;;;;;;24.88;19.60;;;;;;;9.55;100.00;69456.72;5092514;28;20121;-48
2024/03/31 08:26:04;;;;;;;24.60;17.65;;;;;;;9.64;100.00;69465.19;5092303;28;20104;-48
2024/03/31 08:28:31;;;;;;;21.65;16.80;;;;;;;9.69;100.00;69469.84;5092497;28;20047;-47
2024/03/31 08:30:57;;;;;;;23.08;17.40;;;;;;;9.74;100.00;69478.31;5092187;28;20052;-48
2024/03/31 08:33:26;;;;;;;25.27;17.58;;;;;;;9.80;100.00;69485.88;5092320;28;20050;-48
2024/03/31 08:35:53;;;;;;;23.88;16.98;;;;;;;9.82;100.00;69485.59;5092279;28;20398;-47
2024/03/31 08:38:20;;;;;;;25.20;16.73;;;;;;;9.84;100.00;69489.38;5091943;28;20486;-47
2024/03/31 08:40:53;;;;;;;24.15;17.60;;;;;;;9.85;100.00;69491.13;5092021;28;20411;-47
2024/03/31 08:43:22;;;;;;;;;;;;;;;9.95;100.00;69499.59;5092475;28;20044;-49
2024/03/31 08:45:49;;;;;;;24.50;16.52;;;;;;;9.99;100.00;69509.47;5090017;28;19928;-46
2024/03/31 08:48:20;;;;;;;21.42;15.23;;;;;;;10.15;100.00;69522.34;5088709;28;20032;-47
2024/03/31 08:50:48;;;;;;;22.67;16.65;;;;;;;10.33;100.00;69545.38;5090259;28;20036;-47
2024/03/31 08:53:16;;;;;;;22.15;17.08;;;;;;;10.51;100.00;69563.19;5087387;28;20433;-48
2024/03/31 08:55:42;;;;;;;22.67;17.05;;;;;;;10.74;100.00;69591.50;5088974;28;20051;-48
2024/03/31 08:58:09;;;;;;;21.20;16.17;;;;;;;10.95;100.00;69616.00;5091873;28;20044;-49
2024/03/31 09:00:37;;;;;;;21.33;15.45;;;;;;;11.15;100.00;69638.19;5091728;28;20529;-48
2024/03/31 09:03:04;;;;;;;20.63;13.93;;;;;;;11.24;100.00;69650.75;5091726;28;20078;-47
2024/03/31 09:05:31;;;;;;;24.02;14.75;;;;;;;11.33;100.00;69654.00;5091643;28;20040;-48
2024/03/31 09:08:00;;;;;;;20.17;13.25;;;;;;;11.36;100.00;69659.53;5074501;28;20059;-47
2024/03/31 09:10:27;;;;;;;20.92;13.80;;;;;;;11.44;100.00;69671.47;5091671;28;20097;-47
2024/03/31 09:12:54;;;;;;;18.40;13.15;;;;;;;11.55;100.00;69683.16;5091542;28;20082;-49
2024/03/31 09:15:21;;;;;;;23.25;14.25;;;;;;;11.61;100.00;69682.91;5091869;28;20407;-46
2024/03/31 09:17:48;;;;;;;20.38;14.25;;;;;;;11.73;100.00;69701.00;5091410;28;20170;-48
2024/03/31 09:20:15;;;;;;;20.55;13.93;;;;;;;11.96;100.00;69724.69;5091349;28;20069;-49
2024/03/31 09:22:44;;;;;;;22.80;14.32;;;;;;;12.09;100.00;69742.50;5074782;28;20050;-48
2024/03/31 09:25:12;;;;;;;20.42;14.00;;;;;;;12.19;100.00;69758.84;5091295;28;20065;-48
2024/03/31 09:27:39;;;;;;;21.85;14.40;;;;;;;12.39;100.00;69775.78;5091297;28;20040;-48
2024/03/31 09:30:06;;;;;;;19.98;13.23;;;;;;;12.58;100.00;69798.00;5091338;28;20052;-47
2024/03/31 09:32:33;;;;;;;23.50;13.95;;;;;;;12.71;100.00;69814.63;5091218;28;20052;-45
2024/03/31 09:34:59;;;;;;;22.88;14.60;;;;;;;12.82;100.00;69824.91;5091233;28;20036;-49
2024/03/31 09:37:27;;;;;;;18.52;13.40;;;;;;;12.96;100.00;69841.25;5074276;28;20468;-48
2024/03/31 09:39:53;;;;;;;18.58;13.50;;;;;;;13.13;100.00;69855.31;5091029;28;20050;-50
2024/03/31 09:42:21;;;;;;;21.02;13.10;;;;;;;13.26;100.00;69871.97;5089053;28;20483;-47
2024/03/31 09:44:48;;;;;;;20.10;13.98;;;;;;;13.48;100.00;69894.50;5087817;28;20495;-48
2024/03/31 09:47:22;;;;;;;19.60;13.50;;;;;;;13.72;100.00;69924.63;5073339;28;20147;-47
2024/03/31 09:49:59;;;;;;;19.67;12.90;;;;;;;14.06;100.00;69962.66;5091348;28;20116;-48
2024/03/31 09:52:34;;;;;;;19.08;13.05;;;;;;;14.25;100.00;69984.28;5090945;28;20395;-48
2024/03/31 09:55:06;;;;;;;21.25;11.95;;;;;;;14.47;100.00;70006.84;5073697;28;20071;-47
2024/03/31 09:57:38;;;;;;;19.50;12.35;;;;;;;14.54;100.00;70020.28;5073990;28;20174;-48
2024/03/31 10:00:07;;;;;;;20.42;12.27;;;;;;;14.76;100.00;70045.47;5087158;28;20085;-50
2024/03/31 10:02:35;;;;;;;17.55;11.15;;;;;;;14.72;100.00;70040.22;5087487;28;20138;-49
2024/03/31 10:05:08;;;;;;;17.48;11.18;;;;;;;14.88;100.00;70059.53;5086517;28;20483;-53
2024/03/31 10:07:36;;;;;;;17.35;11.32;;;;;;;14.93;100.00;70062.19;5089205;28;20052;-51
2024/03/31 10:10:03;;;;;;;19.25;11.48;;;;;;;15.14;100.00;70088.81;5090408;28;20054;-49
2024/03/31 10:12:32;;;;;;;15.90;11.07;;;;;;;15.48;100.00;70124.25;5090456;28;20039;-48
2024/03/31 10:15:02;;;;;;;17.55;10.73;;;;;;;15.82;100.00;70168.19;5090384;28;20119;-46
2024/03/31 10:17:30;;;;;;;19.40;10.70;;;;;;;16.03;100.00;70190.19;5090451;28;20071;-49
2024/03/31 10:19:59;;;;;;;16.85;9.68;;;;;;;16.11;100.00;70198.38;5090575;28;20513;-48
2024/03/31 10:22:26;;;;;;;17.75;9.75;;;;;;;16.29;100.00;70219.50;5073569;28;20048;-48
2024/03/31 10:24:54;;;;;;;16.90;8.40;;;;;;;16.65;100.00;70257.88;5086905;28;20044;-50
2024/03/31 10:27:23;;;;;;;13.65;7.95;;;;;;;16.95;100.00;70293.97;5088179;28;20407;-49
2024/03/31 10:29:51;;;;;;;16.23;6.45;;;;;;;16.87;100.00;70285.13;5090408;28;20036;-48
2024/03/31 10:32:20;;;;;;;15.57;6.90;;;;;;;17.00;100.00;70297.78;5073594;28;20052;-47
2024/03/31 10:34:46;;;;;;;13.02;5.80;;;;;;;17.30;100.00;70331.78;5087854;28;20475;-48
2024/03/31 10:37:14;;;;;;;15.30;5.90;;;;;;;17.39;100.00;70344.97;5086195;28;20414;-51
2024/03/31 10:39:43;;;;;;;16.27;5.55;;;;;;;17.52;100.00;70359.03;5090164;28;20063;-46
2024/03/31 10:42:13;;;;;;;13.50;6.60;;;;;;;17.44;100.00;70350.25;5090276;28;20040;-48
2024/03/31 10:44:40;;;;;;;14.80;6.95;;;;;;;17.34;100.00;70335.88;5090240;28;20055;-47
2024/03/31 10:47:07;;;;;;;15.13;6.53;;;;;;;17.32;100.00;70338.81;5090173;28;20052;-48
2024/03/31 10:49:39;;;;;;;15.23;6.88;;;;;;;17.33;100.00;70340.56;5090175;28;20040;-49
2024/03/31 10:52:06;;;;;;;14.82;6.75;;;;;;;17.37;100.00;70340.00;5090148;28;20044;-48
2024/03/31 10:54:36;;;;;;;14.95;6.95;;;;;;;17.49;100.00;70358.78;5090091;28;20048;-51
2024/03/31 10:57:05;;;;;;;14.43;7.05;;;;;;;17.67;100.00;70374.03;5090007;28;20040;-47
2024/03/31 10:59:31;;;;;;;15.50;7.18;;;;;;;17.93;100.00;70406.03;5072893;28;20055;-49
2024/03/31 11:02:09;;;;;;;17.00;6.82;;;;;;;18.28;100.00;70445.34;5072834;28;20537;-48
2024/03/31 11:04:37;;;;;;;12.48;6.10;;;;;;;17.98;100.00;70411.88;5090181;28;20403;-48
2024/03/31 11:07:05;;;;;;;12.05;4.85;;;;;;;17.91;100.00;70406.28;5088186;28;20484;-50
2024/03/31 11:09:31;;;;;;;14.15;4.65;;;;;;;17.90;100.00;70402.47;5086636;28;20044;-48
2024/03/31 11:11:59;;;;;;;13.45;5.40;;;;;;;17.74;100.00;70382.22;5088687;28;20052;-49
2024/03/31 11:14:26;;;;;;;10.75;4.47;;;;;;;17.80;100.00;70390.75;5093827;28;20511;-48
2024/03/31 11:16:53;;;;;;;14.95;5.22;;;;;;;17.50;100.00;70362.00;5093765;28;20131;-48